Time;durP1;ratioP1;P1;durP2;ratioP2;P2;SDS_P1;SDS_P2;PMS_P1;PMS_P2;Temp;Humidity;BMP_temperature;BMP_pressure;BME280_temperature;BME280_humidity;BME280_pressure;Samples;Min_cycle;Max_cycle;Signal;HPM_P1;HPM_P2
2022/09/28 00:00:24;;;;;;;;;;;16.20;93.60;;;;;;5015589;28;19905;-26
2022/09/28 00:02:51;;;;;;;;;;;16.20;93.60;;;;;;5015493;28;20008;-26
2022/09/28 00:05:16;;;;;;;;;;;16.20;93.70;;;;;;5015490;28;19916;-27
2022/09/28 00:07:42;;;;;;;;;;;16.20;93.70;;;;;;5015445;28;20370;-26
2022/09/28 00:10:08;;;;;;;;;;;16.20;93.70;;;;;;5015378;28;19995;-26
2022/09/28 00:12:33;;;;;;;;;;;16.20;93.70;;;;;;5015454;28;19906;-26
2022/09/28 00:14:59;;;;;;;;;;;16.20;93.70;;;;;;5015394;28;19909;-27
2022/09/28 00:17:25;;;;;;;;;;;16.20;93.70;;;;;;5015652;28;19906;-26
2022/09/28 00:19:51;;;;;;;;;;;16.20;93.70;;;;;;5015081;28;19909;-27
2022/09/28 00:22:17;;;;;;;;;;;16.20;93.70;;;;;;5015352;28;20343;-26
2022/09/28 00:24:43;;;;;;;;;;;16.20;93.70;;;;;;5015272;28;19948;-26
2022/09/28 00:27:09;;;;;;;;;;;16.20;93.70;;;;;;5015149;28;19912;-27
2022/09/28 00:29:35;;;;;;;;;;;16.20;93.70;;;;;;5015019;28;19905;-26
2022/09/28 00:32:06;;;;;;;;;;;16.20;93.70;;;;;;5014904;28;19915;-26
2022/09/28 00:34:33;;;;;;;;;;;16.20;93.70;;;;;;5015036;28;19921;-27
2022/09/28 00:36:59;;;;;;;;;;;16.20;93.80;;;;;;5014878;28;19910;-26
2022/09/28 00:39:25;;;;;;;;;;;16.20;93.80;;;;;;5015031;28;20262;-26
2022/09/28 00:41:52;;;;;;;;;;;16.20;93.80;;;;;;5014381;28;19975;-26
2022/09/28 00:44:23;;;;;;;;;;;16.20;93.80;;;;;;5015014;28;19913;-26
2022/09/28 00:46:49;;;;;;;;;;;16.20;93.80;;;;;;5014573;28;20327;-26
2022/09/28 00:49:16;;;;;;;;;;;16.20;93.80;;;;;;5014629;28;19971;-26
2022/09/28 00:51:42;;;;;;;;;;;16.20;93.80;;;;;;5014663;28;19906;-27
2022/09/28 00:54:08;;;;;;;;;;;16.20;93.80;;;;;;5014705;28;19910;-26
2022/09/28 00:56:35;;;;;;;;;;;16.20;93.80;;;;;;5014363;28;20283;-26
2022/09/28 00:59:03;;;;;;;;;;;16.20;93.80;;;;;;5042480;22;19925;-25
2022/09/28 01:01:29;;;;;;;;;;;16.10;93.80;;;;;;5034235;28;19936;-25
2022/09/28 01:03:57;;;;;;;;;;;16.10;93.80;;;;;;5034218;28;19963;-25
2022/09/28 01:06:26;;;;;;;;;;;16.10;93.80;;;;;;5034278;28;19905;-25
2022/09/28 01:08:53;;;;;;;;;;;16.10;93.90;;;;;;5029123;28;19906;-25
2022/09/28 01:11:19;;;;;;;;;;;16.10;93.90;;;;;;5014363;28;19905;-26
2022/09/28 01:13:45;;;;;;;;;;;16.10;93.90;;;;;;5014510;28;19912;-25
2022/09/28 01:16:11;;;;;;;;;;;16.10;93.90;;;;;;5014152;28;19909;-25
2022/09/28 01:18:40;;;;;;;;;;;16.10;93.90;;;;;;5013972;28;19997;-25
2022/09/28 01:21:12;;;;;;;;;;;16.10;93.90;;;;;;5014135;28;19905;-25
2022/09/28 01:23:37;;;;;;;;;;;16.10;93.90;;;;;;5014031;28;19996;-25
2022/09/28 01:26:26;;;;;;;;;;;16.10;93.90;;;;;;5014105;28;20385;-25
2022/09/28 01:28:55;;;;;;;;;;;16.10;93.90;;;;;;5008068;28;19905;-25
2022/09/28 01:31:23;;;;;;;;;;;16.10;94.00;;;;;;5013992;28;19917;-25
2022/09/28 01:33:54;;;;;;;;;;;16.10;94.00;;;;;;5013933;28;19905;-25
2022/09/28 01:36:24;;;;;;;;;;;16.10;94.00;;;;;;5013676;28;19909;-25
2022/09/28 01:38:54;;;;;;;;;;;16.10;94.00;;;;;;5013686;28;19956;-25
2022/09/28 01:41:21;;;;;;;;;;;16.10;94.00;;;;;;5013720;28;19928;-25
2022/09/28 01:43:52;;;;;;;;;;;16.10;94.00;;;;;;5013754;28;19905;-25
2022/09/28 01:46:44;;;;;;;;;;;16.10;94.00;;;;;;5013584;28;19913;-26
2022/09/28 01:49:20;;;;;;;;;;;16.10;94.00;;;;;;5011295;28;19947;-26
2022/09/28 01:52:00;;;;;;;;;;;16.00;94.00;;;;;;5013548;28;19996;-26
2022/09/28 01:54:41;;;;;;;;;;;16.10;94.00;;;;;;5013539;28;19905;-26
2022/09/28 01:57:27;;;;;;;;;;;16.10;94.00;;;;;;4995788;28;19931;-26
2022/09/28 02:00:07;;;;;;;;;;;16.10;94.10;;;;;;5012702;28;20337;-26
2022/09/28 02:02:41;;;;;;;;;;;16.10;94.10;;;;;;5013410;28;19913;-26
2022/09/28 02:05:09;;;;;;;;;;;16.00;94.00;;;;;;5013354;28;20388;-26
2022/09/28 02:07:39;;;;;;;;;;;16.00;94.10;;;;;;5013470;28;19945;-26
2022/09/28 02:10:23;;;;;;;;;;;16.00;94.10;;;;;;5013005;28;20270;-25
2022/09/28 02:12:57;;;;;;;;;;;16.00;94.10;;;;;;4995598;28;19906;-26
2022/09/28 02:15:25;;;;;;;;;;;16.00;94.10;;;;;;5013166;28;19916;-25
2022/09/28 02:17:51;;;;;;;;;;;16.00;94.10;;;;;;5013383;28;20294;-25
2022/09/28 02:20:16;;;;;;;;;;;16.00;94.10;;;;;;5012928;28;19905;-26
2022/09/28 02:22:49;;;;;;;;;;;16.00;94.10;;;;;;5013100;28;19909;-26
2022/09/28 02:25:18;;;;;;;;;;;16.00;94.10;;;;;;5013101;28;19912;-26
2022/09/28 02:27:46;;;;;;;;;;;16.00;94.20;;;;;;5013018;28;20414;-26
2022/09/28 02:30:12;;;;;;;;;;;16.00;94.10;;;;;;5012541;28;19905;-25
2022/09/28 02:32:39;;;;;;;;;;;16.00;94.20;;;;;;5013013;28;19905;-25
2022/09/28 02:35:06;;;;;;;;;;;16.00;94.20;;;;;;5012904;28;19912;-26
2022/09/28 02:37:32;;;;;;;;;;;16.00;94.20;;;;;;5013130;28;19936;-26
2022/09/28 02:39:57;;;;;;;;;;;16.00;94.20;;;;;;5012636;28;19909;-25
2022/09/28 02:42:26;;;;;;;;;;;16.00;94.20;;;;;;5012879;28;19905;-26
2022/09/28 02:45:08;;;;;;;;;;;16.00;94.20;;;;;;5012712;28;20132;-26
2022/09/28 02:47:37;;;;;;;;;;;16.00;94.30;;;;;;5012825;28;19909;-26
2022/09/28 02:50:06;;;;;;;;;;;16.00;94.30;;;;;;5012539;28;19905;-25
2022/09/28 02:52:46;;;;;;;;;;;16.00;94.30;;;;;;5012794;28;19906;-25
2022/09/28 02:55:23;;;;;;;;;;;16.00;94.30;;;;;;5012584;28;19959;-25
2022/09/28 02:58:02;;;;;;;;;;;16.00;94.30;;;;;;5012730;28;20286;-26
2022/09/28 03:00:30;;;;;;;;;;;16.00;94.30;;;;;;5012422;28;19917;-25
2022/09/28 03:02:56;;;;;;;;;;;16.00;94.30;;;;;;5012659;28;19911;-25
2022/09/28 03:05:30;;;;;;;;;;;16.00;94.40;;;;;;5013037;28;20003;-26
2022/09/28 03:07:58;;;;;;;;;;;15.90;94.30;;;;;;5016629;28;20290;-26
2022/09/28 03:10:26;;;;;;;;;;;15.90;94.40;;;;;;5016578;28;19905;-26
2022/09/28 03:12:52;;;;;;;;;;;15.90;94.40;;;;;;5016507;28;19944;-26
2022/09/28 03:15:20;;;;;;;;;;;15.90;94.40;;;;;;5016446;28;19912;-26
2022/09/28 03:17:46;;;;;;;;;;;15.90;94.40;;;;;;5016476;28;20364;-25
2022/09/28 03:20:11;;;;;;;;;;;15.90;94.40;;;;;;5016023;28;19913;-25
2022/09/28 03:22:37;;;;;;;;;;;15.90;94.50;;;;;;5016530;28;20286;-25
2022/09/28 03:25:04;;;;;;;;;;;15.90;94.40;;;;;;5016747;28;19979;-26
2022/09/28 03:27:29;;;;;;;;;;;15.90;94.40;;;;;;5016281;28;19988;-25
2022/09/28 03:29:55;;;;;;;;;;;15.90;94.40;;;;;;5016038;28;19964;-25
2022/09/28 03:32:20;;;;;;;;;;;15.90;94.40;;;;;;5016218;28;19955;-25
2022/09/28 03:34:46;;;;;;;;;;;15.90;94.40;;;;;;5016114;28;20367;-25
2022/09/28 03:37:11;;;;;;;;;;;15.90;94.50;;;;;;5016037;28;20285;-26
2022/09/28 03:39:37;;;;;;;;;;;15.90;94.50;;;;;;5015930;28;20366;-26
2022/09/28 03:42:02;;;;;;;;;;;15.90;94.50;;;;;;5015949;28;19912;-26
2022/09/28 03:44:28;;;;;;;;;;;15.90;94.50;;;;;;5015975;28;19909;-26
2022/09/28 03:46:53;;;;;;;;;;;15.90;94.50;;;;;;5016001;28;19909;-26
2022/09/28 03:49:19;;;;;;;;;;;15.90;94.50;;;;;;5015625;28;20000;-26
2022/09/28 03:51:44;;;;;;;;;;;15.90;94.60;;;;;;5015815;28;19928;-26
2022/09/28 03:54:10;;;;;;;;;;;15.90;94.60;;;;;;5015887;28;20309;-25
2022/09/28 03:56:35;;;;;;;;;;;15.90;94.60;;;;;;5015768;28;19909;-26
2022/09/28 03:59:04;;;;;;;;;;;15.80;94.60;;;;;;5015447;28;19923;-26
2022/09/28 04:01:29;;;;;;;;;;;15.90;94.60;;;;;;5016169;28;20347;-26
2022/09/28 04:03:55;;;;;;;;;;;15.90;94.60;;;;;;5015620;28;19916;-26
2022/09/28 04:06:21;;;;;;;;;;;15.80;94.60;;;;;;5015708;28;19913;-26
2022/09/28 04:08:46;;;;;;;;;;;15.80;94.60;;;;;;5015343;28;19905;-26
2022/09/28 04:11:12;;;;;;;;;;;15.80;94.60;;;;;;5015446;28;19913;-25
2022/09/28 04:13:37;;;;;;;;;;;15.80;94.60;;;;;;5015436;28;19905;-26
2022/09/28 04:16:04;;;;;;;;;;;15.80;94.60;;;;;;5015368;28;19913;-25
2022/09/28 04:18:31;;;;;;;;;;;15.80;94.60;;;;;;5016074;28;19906;-26
2022/09/28 04:20:58;;;;;;;;;;;15.80;94.60;;;;;;5018826;28;19932;-26
2022/09/28 04:23:23;;;;;;;;;;;15.80;94.60;;;;;;5015558;28;19912;-26
2022/09/28 04:25:52;;;;;;;;;;;15.80;94.60;;;;;;5015273;28;19995;-26
2022/09/28 04:31:02;;;;;;;;;;;15.80;94.60;;;;;;5015082;28;19912;-26
2022/09/28 04:33:28;;;;;;;;;;;15.80;94.60;;;;;;5015120;28;20274;-26
2022/09/28 04:35:53;;;;;;;;;;;15.90;94.70;;;;;;5015113;28;20218;-26
2022/09/28 04:38:19;;;;;;;;;;;15.80;94.60;;;;;;5014943;28;19948;-26
2022/09/28 04:40:47;;;;;;;;;;;15.80;94.60;;;;;;5014831;28;20367;-25
2022/09/28 04:43:13;;;;;;;;;;;15.80;94.70;;;;;;5014962;28;19905;-25
2022/09/28 04:45:38;;;;;;;;;;;15.80;94.70;;;;;;5014817;28;20370;-26
2022/09/28 04:48:05;;;;;;;;;;;15.80;94.70;;;;;;5014769;28;19905;-26
2022/09/28 04:50:30;;;;;;;;;;;15.80;94.70;;;;;;5014563;28;19910;-26
2022/09/28 04:52:56;;;;;;;;;;;15.80;94.70;;;;;;5014790;28;20005;-26
2022/09/28 04:55:21;;;;;;;;;;;15.80;94.70;;;;;;5014647;28;20286;-26
2022/09/28 04:57:47;;;;;;;;;;;15.80;94.70;;;;;;5014616;28;20004;-26
2022/09/28 05:00:12;;;;;;;;;;;15.80;94.70;;;;;;5014624;28;19996;-26
2022/09/28 05:02:38;;;;;;;;;;;15.80;94.70;;;;;;5014653;28;19968;-25
2022/09/28 05:05:04;;;;;;;;;;;15.80;94.80;;;;;;5014501;28;20269;-26
2022/09/28 05:07:30;;;;;;;;;;;15.80;94.70;;;;;;5014458;28;19912;-25
2022/09/28 05:09:55;;;;;;;;;;;15.80;94.70;;;;;;5014415;28;19905;-26
2022/09/28 05:12:21;;;;;;;;;;;15.70;94.70;;;;;;5014421;28;19915;-25
2022/09/28 05:14:46;;;;;;;;;;;15.80;94.80;;;;;;5014249;28;20351;-26
2022/09/28 05:17:12;;;;;;;;;;;15.80;94.80;;;;;;5014295;28;19913;-26
2022/09/28 05:19:37;;;;;;;;;;;15.80;94.80;;;;;;5014059;28;20274;-25
2022/09/28 05:22:03;;;;;;;;;;;15.80;94.80;;;;;;5014267;28;19906;-25
2022/09/28 05:24:29;;;;;;;;;;;15.80;94.80;;;;;;5014265;28;20260;-25
2022/09/28 05:26:55;;;;;;;;;;;15.80;94.80;;;;;;5014344;28;19912;-25
2022/09/28 05:29:20;;;;;;;;;;;15.80;94.80;;;;;;5013595;28;20001;-26
2022/09/28 05:31:46;;;;;;;;;;;15.70;94.80;;;;;;5014170;28;19912;-26
2022/09/28 05:34:11;;;;;;;;;;;15.80;94.80;;;;;;5014301;28;19912;-26
2022/09/28 05:36:38;;;;;;;;;;;15.80;94.80;;;;;;5013949;28;20441;-26
2022/09/28 05:39:04;;;;;;;;;;;15.80;94.80;;;;;;5013610;28;19906;-25
2022/09/28 05:41:29;;;;;;;;;;;15.80;94.90;;;;;;5014209;28;20313;-25
2022/09/28 05:43:56;;;;;;;;;;;15.80;94.80;;;;;;5013747;28;19905;-26
2022/09/28 05:46:22;;;;;;;;;;;15.70;94.80;;;;;;5013831;28;20052;-26
2022/09/28 05:48:48;;;;;;;;;;;15.80;94.90;;;;;;5013740;28;19905;-26
2022/09/28 05:51:14;;;;;;;;;;;15.80;94.90;;;;;;5013753;28;19905;-26
2022/09/28 05:53:39;;;;;;;;;;;15.80;94.90;;;;;;5013639;28;19905;-26
2022/09/28 05:56:05;;;;;;;;;;;15.70;95.20;;;;;;5013667;28;19914;-26
2022/09/28 05:58:30;;;;;;;;;;;15.70;94.90;;;;;;5013426;28;19909;-26
2022/09/28 06:00:56;;;;;;;;;;;15.70;94.90;;;;;;5013820;28;19909;-26
2022/09/28 06:03:22;;;;;;;;;;;15.70;94.90;;;;;;5013633;28;19941;-26
2022/09/28 06:05:47;;;;;;;;;;;15.70;94.90;;;;;;5013491;28;19912;-25
2022/09/28 06:08:13;;;;;;;;;;;15.70;94.90;;;;;;5013340;28;20394;-25
2022/09/28 06:10:38;;;;;;;;;;;15.70;94.90;;;;;;5013213;28;19905;-25
2022/09/28 06:13:05;;;;;;;;;;;15.70;94.90;;;;;;5013821;28;19949;-26
2022/09/28 06:15:32;;;;;;;;;;;15.70;94.90;;;;;;5013309;28;19968;-26
2022/09/28 06:18:01;;;;;;;;;;;15.70;94.90;;;;;;5013174;28;19909;-25
2022/09/28 06:20:29;;;;;;;;;;;15.70;94.90;;;;;;5012896;28;19909;-26
2022/09/28 06:22:54;;;;;;;;;;;15.70;95.00;;;;;;5013290;28;19905;-25
2022/09/28 06:25:20;;;;;;;;;;;15.70;95.00;;;;;;5013543;28;19921;-25
2022/09/28 06:27:59;;;;;;;;;;;15.70;95.00;;;;;;5012889;28;19996;-25
2022/09/28 06:30:25;;;;;;;;;;;15.70;95.30;;;;;;5013113;28;20260;-25
2022/09/28 06:32:52;;;;;;;;;;;15.70;95.00;;;;;;5013195;28;19960;-25
2022/09/28 06:35:18;;;;;;;;;;;15.70;95.00;;;;;;5012977;28;20421;-25
2022/09/28 06:37:43;;;;;;;;;;;15.70;95.00;;;;;;5013134;28;20016;-25
2022/09/28 06:40:09;;;;;;;;;;;15.70;95.10;;;;;;5011840;28;19905;-26
2022/09/28 06:42:34;;;;;;;;;;;15.70;95.10;;;;;;5013076;28;20271;-25
2022/09/28 06:45:00;;;;;;;;;;;15.60;95.10;;;;;;5012877;28;20060;-25
2022/09/28 06:47:25;;;;;;;;;;;15.60;95.10;;;;;;5012777;28;20290;-25
2022/09/28 06:49:54;;;;;;;;;;;15.60;95.10;;;;;;5012640;28;19912;-25
2022/09/28 06:52:20;;;;;;;;;;;15.40;95.10;;;;;;5012794;28;19905;-25
2022/09/28 06:54:45;;;;;;;;;;;15.30;95.40;;;;;;5012629;28;20289;-25
2022/09/28 06:57:11;;;;;;;;;;;15.30;95.50;;;;;;5012571;28;19996;-25
2022/09/28 06:59:37;;;;;;;;;;;15.20;95.50;;;;;;5035556;22;19922;-23
2022/09/28 07:02:03;;;;;;;;;;;15.30;95.60;;;;;;5012681;28;19940;-24
2022/09/28 07:04:30;;;;;;;;;;;15.30;95.60;;;;;;5012656;28;19917;-23
2022/09/28 07:06:55;;;;;;;;;;;15.30;95.50;;;;;;5012718;28;19906;-23
2022/09/28 07:09:21;;;;;;;;;;;15.40;95.60;;;;;;5012422;28;19996;-23
2022/09/28 07:11:46;;;;;;;;;;;15.40;95.50;;;;;;5012571;28;19999;-23
2022/09/28 07:14:12;;;;;;;;;;;15.40;95.50;;;;;;5011193;28;19992;-23
2022/09/28 07:16:37;;;;;;;;;;;15.40;95.50;;;;;;5012512;28;19914;-23
2022/09/28 07:19:03;;;;;;;;;;;15.40;95.50;;;;;;5012365;28;19916;-23
2022/09/28 07:21:28;;;;;;;;;;;15.40;95.50;;;;;;5012511;28;19905;-23
2022/09/28 07:23:54;;;;;;;;;;;15.40;95.50;;;;;;5012508;28;19912;-23
2022/09/28 07:26:19;;;;;;;;;;;15.40;95.50;;;;;;5012519;28;19910;-23
2022/09/28 07:28:45;;;;;;;;;;;15.40;95.50;;;;;;5012170;28;19905;-24
2022/09/28 07:31:10;;;;;;;;;;;15.40;95.50;;;;;;5013123;28;19977;-24
2022/09/28 07:33:36;;;;;;;;;;;15.40;95.50;;;;;;5012417;28;19912;-24
2022/09/28 07:36:05;;;;;;;;;;;15.40;95.50;;;;;;5012456;28;19917;-23
2022/09/28 07:38:34;;;;;;;;;;;15.40;95.50;;;;;;5012566;28;19906;-23
2022/09/28 07:41:13;;;;;;;;;;;15.40;95.50;;;;;;5014622;28;19906;-24
2022/09/28 07:43:39;;;;;;;;;;;15.40;95.50;;;;;;5014127;28;20337;-23
2022/09/28 07:46:10;;;;;;;;;;;15.40;95.50;;;;;;5013758;28;19905;-23
2022/09/28 07:48:42;;;;;;;;;;;15.40;95.50;;;;;;5012209;28;20447;-24
2022/09/28 07:51:08;;;;;;;;;;;15.40;95.60;;;;;;5012196;28;19905;-23
2022/09/28 07:53:34;;;;;;;;;;;15.40;95.50;;;;;;5016060;28;19916;-24
2022/09/28 07:56:08;;;;;;;;;;;15.40;95.60;;;;;;5015895;28;19913;-23
2022/09/28 07:58:35;;;;;;;;;;;15.40;95.60;;;;;;5015740;28;19910;-23
2022/09/28 08:01:09;;;;;;;;;;;15.40;95.60;;;;;;5015596;28;20334;-24
2022/09/28 08:03:35;;;;;;;;;;;15.40;95.90;;;;;;5015951;28;20421;-23
2022/09/28 08:06:02;;;;;;;;;;;15.40;95.60;;;;;;5015711;28;19912;-23
2022/09/28 08:08:28;;;;;;;;;;;15.40;95.60;;;;;;5015646;28;19952;-23
2022/09/28 08:10:55;;;;;;;;;;;15.40;95.60;;;;;;5015586;28;19939;-23
2022/09/28 08:13:21;;;;;;;;;;;15.40;95.60;;;;;;5015625;28;19940;-23
2022/09/28 08:15:50;;;;;;;;;;;15.40;95.60;;;;;;5015477;28;19909;-24
2022/09/28 08:18:15;;;;;;;;;;;15.40;95.60;;;;;;5015557;28;19911;-23
2022/09/28 08:23:25;;;;;;;;;;;15.40;95.60;;;;;;5015480;28;19912;-24
2022/09/28 08:25:54;;;;;;;;;;;15.40;95.60;;;;;;5015729;28;19906;-24
2022/09/28 08:28:21;;;;;;;;;;;15.40;95.60;;;;;;5015305;28;19905;-23
2022/09/28 08:30:47;;;;;;;;;;;15.40;95.60;;;;;;5015013;28;19911;-24
2022/09/28 08:33:14;;;;;;;;;;;15.40;95.60;;;;;;5015060;28;19905;-23
2022/09/28 08:35:40;;;;;;;;;;;15.40;95.60;;;;;;5015118;28;19909;-23
2022/09/28 08:38:07;;;;;;;;;;;15.40;95.60;;;;;;5015086;28;19932;-24
2022/09/28 08:40:36;;;;;;;;;;;15.40;95.60;;;;;;5014892;28;20385;-24
2022/09/28 08:43:05;;;;;;;;;;;15.40;95.60;;;;;;5015155;28;20337;-23
2022/09/28 08:45:33;;;;;;;;;;;15.40;95.60;;;;;;5014973;28;20366;-23
2022/09/28 08:51:00;;;;;;;;;;;15.40;95.60;;;;;;5014709;28;20040;-24
2022/09/28 08:53:31;;;;;;;;;;;15.50;95.60;;;;;;5014930;28;19910;-24
2022/09/28 08:55:58;;;;;;;;;;;15.40;95.60;;;;;;5014624;28;20365;-23
2022/09/28 08:58:31;;;;;;;;;;;15.40;95.60;;;;;;5014510;28;19913;-24
2022/09/28 09:00:57;;;;;;;;;;;15.40;95.60;;;;;;5014332;28;19920;-24
2022/09/28 09:03:31;;;;;;;;;;;15.40;95.70;;;;;;5013889;28;20358;-24
2022/09/28 09:06:03;;;;;;;;;;;15.40;95.60;;;;;;5014603;28;19988;-24
2022/09/28 09:08:36;;;;;;;;;;;15.40;95.60;;;;;;5014345;28;20285;-24
2022/09/28 09:11:08;;;;;;;;;;;15.40;95.60;;;;;;5014587;28;19906;-24
2022/09/28 09:13:45;;;;;;;;;;;15.50;95.60;;;;;;5014426;28;20389;-23
2022/09/28 09:16:29;;;;;;;;;;;15.40;95.60;;;;;;5014301;28;19916;-23
2022/09/28 09:19:07;;;;;;;;;;;15.40;95.60;;;;;;5014164;28;19906;-23
2022/09/28 09:21:38;;;;;;;;;;;15.40;95.60;;;;;;5014111;28;19917;-23
2022/09/28 09:24:15;;;;;;;;;;;15.50;95.70;;;;;;5014283;28;19910;-24
2022/09/28 09:26:42;;;;;;;;;;;15.50;95.70;;;;;;5014236;28;19905;-23
2022/09/28 09:29:13;;;;;;;;;;;15.50;95.70;;;;;;5013971;28;19913;-24
2022/09/28 09:31:49;;;;;;;;;;;15.50;95.70;;;;;;5013876;28;19976;-24
2022/09/28 09:34:20;;;;;;;;;;;15.50;95.70;;;;;;5014032;28;19905;-24
2022/09/28 09:36:59;;;;;;;;;;;15.50;95.60;;;;;;5013964;28;19962;-24
2022/09/28 09:39:24;;;;;;;;;;;15.50;95.70;;;;;;5013804;28;19912;-24
2022/09/28 09:42:08;;;;;;;;;;;15.50;95.70;;;;;;5013832;28;19905;-24
2022/09/28 09:44:43;;;;;;;;;;;15.40;95.40;;;;;;5013882;28;19909;-24
2022/09/28 09:47:12;;;;;;;;;;;15.30;95.20;;;;;;5013956;28;19905;-24
2022/09/28 09:49:57;;;;;;;;;;;15.10;95.30;;;;;;5013780;28;19905;-24
2022/09/28 09:52:31;;;;;;;;;;;15.10;95.60;;;;;;5013640;28;19928;-24
2022/09/28 09:55:02;;;;;;;;;;;15.20;95.80;;;;;;5013837;28;20449;-23
2022/09/28 09:57:50;;;;;;;;;;;15.20;96.00;;;;;;5013643;28;19955;-23
2022/09/28 10:00:16;;;;;;;;;;;15.30;96.10;;;;;;5013399;28;19913;-23
2022/09/28 10:02:43;;;;;;;;;;;15.40;96.20;;;;;;5013539;28;20418;-24
2022/09/28 10:05:09;;;;;;;;;;;15.40;96.30;;;;;;5013530;28;19948;-24
2022/09/28 10:07:40;;;;;;;;;;;15.40;96.30;;;;;;5013697;28;19952;-23
2022/09/28 10:10:10;;;;;;;;;;;15.40;96.40;;;;;;5013156;28;19960;-23
2022/09/28 10:12:36;;;;;;;;;;;15.50;96.50;;;;;;5013510;28;20378;-24
2022/09/28 10:15:01;;;;;;;;;;;15.50;96.50;;;;;;5013310;28;19961;-24
2022/09/28 10:17:27;;;;;;;;;;;15.50;96.60;;;;;;5013175;28;20000;-24
2022/09/28 10:19:55;;;;;;;;;;;15.40;96.70;;;;;;5011995;28;19912;-24
2022/09/28 10:22:22;;;;;;;;;;;15.50;96.70;;;;;;5013187;28;19912;-24
2022/09/28 10:24:50;;;;;;;;;;;15.50;96.80;;;;;;5013135;28;19905;-23
2022/09/28 10:27:21;;;;;;;;;;;15.50;96.80;;;;;;5011746;28;20385;-23
2022/09/28 10:29:52;;;;;;;;;;;15.50;97.20;;;;;;5012760;28;20380;-23
2022/09/28 10:32:22;;;;;;;;;;;15.50;96.90;;;;;;5012992;28;19911;-23
2022/09/28 10:34:49;;;;;;;;;;;15.50;97.00;;;;;;5012947;28;19910;-24
2022/09/28 10:37:15;;;;;;;;;;;15.50;97.00;;;;;;5012853;28;19910;-23
2022/09/28 10:39:44;;;;;;;;;;;15.50;97.10;;;;;;5012785;28;19905;-24
2022/09/28 10:42:11;;;;;;;;;;;15.50;97.10;;;;;;5012824;28;19910;-23
2022/09/28 10:44:48;;;;;;;;;;;15.50;97.10;;;;;;5012801;28;19956;-24
2022/09/28 10:47:16;;;;;;;;;;;15.60;97.10;;;;;;5013024;28;19909;-24
2022/09/28 10:49:44;;;;;;;;;;;15.50;97.10;;;;;;5014518;28;19905;-24
2022/09/28 10:52:27;;;;;;;;;;;15.60;97.10;;;;;;5015728;28;19906;-24
2022/09/28 10:54:53;;;;;;;;;;;15.60;97.10;;;;;;5013106;28;19905;-24
2022/09/28 10:57:31;;;;;;;;;;;15.60;97.10;;;;;;5012829;28;19916;-24
2022/09/28 10:59:57;;;;;;;;;;;15.60;97.20;;;;;;5012817;28;20390;-23
2022/09/28 11:02:36;;;;;;;;;;;15.60;97.20;;;;;;5013328;28;19936;-24
2022/09/28 11:05:03;;;;;;;;;;;15.60;97.20;;;;;;5012907;28;19959;-23
2022/09/28 11:07:30;;;;;;;;;;;15.60;97.20;;;;;;5012772;28;20366;-24
2022/09/28 11:09:57;;;;;;;;;;;15.60;97.20;;;;;;5012871;28;19905;-24
2022/09/28 11:12:25;;;;;;;;;;;15.70;97.20;;;;;;5012903;28;19905;-24
2022/09/28 11:15:01;;;;;;;;;;;15.70;97.20;;;;;;5012969;28;19912;-24
2022/09/28 11:17:31;;;;;;;;;;;15.60;97.20;;;;;;5012563;28;19909;-24
2022/09/28 11:19:58;;;;;;;;;;;15.60;97.20;;;;;;5012339;28;19905;-24
2022/09/28 11:22:32;;;;;;;;;;;15.70;97.20;;;;;;5012656;28;20435;-24
2022/09/28 11:25:16;;;;;;;;;;;15.70;97.20;;;;;;5012630;28;19905;-23
2022/09/28 11:27:50;;;;;;;;;;;15.70;95.00;;;;;;5015106;28;19905;-23
2022/09/28 11:30:25;;;;;;;;;;;15.60;94.10;;;;;;5015933;28;19906;-24
2022/09/28 11:32:52;;;;;;;;;;;15.50;94.40;;;;;;5016318;28;20378;-23
2022/09/28 11:35:23;;;;;;;;;;;15.50;94.60;;;;;;5016270;28;20329;-24
2022/09/28 11:37:48;;;;;;;;;;;15.60;94.80;;;;;;5016177;28;19909;-24
2022/09/28 11:40:14;;;;;;;;;;;15.50;95.00;;;;;;5015950;28;19953;-24
2022/09/28 11:42:45;;;;;;;;;;;15.60;95.10;;;;;;5016229;28;19905;-23
2022/09/28 11:45:28;;;;;;;;;;;15.60;95.20;;;;;;5016108;28;19913;-24
2022/09/28 11:47:54;;;;;;;;;;;15.70;95.20;;;;;;5016148;28;19909;-24
2022/09/28 11:50:22;;;;;;;;;;;15.70;95.20;;;;;;5015851;28;19912;-24
2022/09/28 11:52:51;;;;;;;;;;;15.70;95.20;;;;;;5016054;28;20336;-23
2022/09/28 11:55:21;;;;;;;;;;;15.80;95.20;;;;;;5015861;28;19905;-23
2022/09/28 11:57:55;;;;;;;;;;;15.70;95.20;;;;;;5015829;28;19916;-24
2022/09/28 12:00:23;;;;;;;;;;;15.70;95.30;;;;;;5015601;28;19914;-24
2022/09/28 12:02:55;;;;;;;;;;;15.70;95.30;;;;;;5015799;28;19927;-24
2022/09/28 12:05:23;;;;;;;;;;;15.80;95.30;;;;;;5015720;28;20287;-24
2022/09/28 12:08:12;;;;;;;;;;;15.70;95.30;;;;;;5014262;28;19909;-24
2022/09/28 12:10:40;;;;;;;;;;;15.70;95.40;;;;;;5015459;28;20260;-23
2022/09/28 12:13:12;;;;;;;;;;;15.70;95.40;;;;;;5015707;28;19905;-23
2022/09/28 12:15:46;;;;;;;;;;;15.70;95.40;;;;;;5015533;28;19928;-23
2022/09/28 12:18:16;;;;;;;;;;;15.70;95.40;;;;;;5015565;28;20293;-23
2022/09/28 12:20:44;;;;;;;;;;;15.70;95.40;;;;;;5015534;28;19905;-23
2022/09/28 12:23:15;;;;;;;;;;;15.70;95.40;;;;;;5014349;28;20382;-24
2022/09/28 12:25:47;;;;;;;;;;;15.70;95.40;;;;;;5015384;28;19912;-23
2022/09/28 12:28:17;;;;;;;;;;;15.70;95.40;;;;;;5015292;28;20359;-23
2022/09/28 12:30:44;;;;;;;;;;;15.70;95.40;;;;;;5014949;28;20028;-23
2022/09/28 12:33:12;;;;;;;;;;;15.70;95.50;;;;;;5015216;28;19905;-23
2022/09/28 12:35:43;;;;;;;;;;;15.70;95.40;;;;;;5015273;28;19905;-23
2022/09/28 12:38:24;;;;;;;;;;;15.70;95.40;;;;;;5014133;28;20417;-23
2022/09/28 12:41:00;;;;;;;;;;;15.70;95.50;;;;;;5014880;28;19905;-23
2022/09/28 12:43:35;;;;;;;;;;;15.70;95.50;;;;;;5015442;28;20366;-23
2022/09/28 12:46:06;;;;;;;;;;;15.70;95.50;;;;;;5015084;28;19909;-24
2022/09/28 12:48:39;;;;;;;;;;;15.70;95.50;;;;;;5014813;28;19937;-23
2022/09/28 12:51:05;;;;;;;;;;;15.70;95.50;;;;;;5015258;28;19906;-24
2022/09/28 12:53:43;;;;;;;;;;;15.70;95.50;;;;;;5014845;28;19932;-23
2022/09/28 12:56:14;;;;;;;;;;;15.70;95.40;;;;;;5014997;28;20263;-23
2022/09/28 12:59:01;;;;;;;;;;;15.70;95.40;;;;;;5014674;28;19913;-23
2022/09/28 13:01:29;;;;;;;;;;;15.70;95.40;;;;;;5055476;22;19921;-25
2022/09/28 13:04:01;;;;;;;;;;;15.70;95.40;;;;;;5014601;28;19906;-25
2022/09/28 13:06:36;;;;;;;;;;;15.70;95.40;;;;;;5014510;28;19931;-25
2022/09/28 13:09:07;;;;;;;;;;;15.70;95.60;;;;;;5014408;28;19906;-25
2022/09/28 13:11:59;;;;;;;;;;;15.70;95.40;;;;;;5014439;28;19909;-25
2022/09/28 13:14:31;;;;;;;;;;;15.70;95.40;;;;;;5006081;28;19905;-25
2022/09/28 13:17:02;;;;;;;;;;;15.70;95.40;;;;;;5014404;28;19910;-25
2022/09/28 13:19:39;;;;;;;;;;;15.70;95.40;;;;;;5014181;28;19921;-25
2022/09/28 13:22:07;;;;;;;;;;;15.70;95.40;;;;;;5014169;28;19912;-25
2022/09/28 13:24:35;;;;;;;;;;;15.70;95.70;;;;;;5014223;28;19905;-25
2022/09/28 13:27:03;;;;;;;;;;;15.80;95.40;;;;;;5014068;28;19912;-25
2022/09/28 13:29:29;;;;;;;;;;;15.70;92.90;;;;;;5013899;28;20341;-25
2022/09/28 13:31:58;;;;;;;;;;;15.70;93.20;;;;;;5013916;28;19905;-25
2022/09/28 13:34:26;;;;;;;;;;;15.70;93.50;;;;;;5014040;28;19905;-26
2022/09/28 13:37:22;;;;;;;;;;;15.80;93.60;;;;;;5013909;28;20043;-25
2022/09/28 13:39:51;;;;;;;;;;;15.90;93.60;;;;;;5009442;28;19917;-25
2022/09/28 13:42:35;;;;;;;;;;;15.90;93.70;;;;;;5013806;28;19912;-25
2022/09/28 13:45:19;;;;;;;;;;;15.90;94.10;;;;;;5013751;28;19906;-25
2022/09/28 13:47:50;;;;;;;;;;;16.00;93.90;;;;;;5013654;28;19952;-25
2022/09/28 13:50:34;;;;;;;;;;;16.00;94.00;;;;;;5011870;28;19905;-25
2022/09/28 13:53:11;;;;;;;;;;;16.00;94.00;;;;;;5013770;28;19906;-25
2022/09/28 13:55:56;;;;;;;;;;;16.00;94.00;;;;;;5013688;28;19936;-25
2022/09/28 13:58:21;;;;;;;;;;;16.00;94.10;;;;;;5013373;28;19941;-25
2022/09/28 14:00:54;;;;;;;;;;;16.00;94.10;;;;;;5013158;28;19945;-25
2022/09/28 14:03:38;;;;;;;;;;;16.00;94.20;;;;;;5013654;28;19909;-25
2022/09/28 14:06:10;;;;;;;;;;;16.00;94.20;;;;;;5013435;28;19912;-25
2022/09/28 14:08:36;;;;;;;;;;;16.00;94.20;;;;;;5013268;28;19911;-25
2022/09/28 14:11:23;;;;;;;;;;;16.00;94.30;;;;;;5013163;28;19905;-25
2022/09/28 14:14:04;;;;;;;;;;;16.00;94.30;;;;;;5013295;28;19949;-25
2022/09/28 14:16:31;;;;;;;;;;;16.00;94.40;;;;;;5013260;28;19909;-26
2022/09/28 14:19:14;;;;;;;;;;;15.90;94.40;;;;;;5013040;28;19905;-25
2022/09/28 14:22:05;;;;;;;;;;;16.00;94.50;;;;;;5013258;28;19913;-25
2022/09/28 14:24:39;;;;;;;;;;;15.90;94.50;;;;;;5013305;28;19995;-25
2022/09/28 14:27:27;;;;;;;;;;;15.90;94.50;;;;;;5013210;28;19916;-25
2022/09/28 14:30:03;;;;;;;;;;;15.90;94.50;;;;;;5012653;28;19909;-25
2022/09/28 14:32:36;;;;;;;;;;;15.90;94.60;;;;;;5013085;28;19917;-25
2022/09/28 14:35:03;;;;;;;;;;;15.90;94.60;;;;;;5012953;28;20006;-26
2022/09/28 14:43:25;;;;;;;;;;;15.90;94.70;;;;;;5013133;28;19995;-25